Weather at Central Venezuela Airport

Public forecast

Using degrees Celsius for public forecast. Weather courtesy of forecast.io.

Closest aviation weather report (METAR) to Central Venezuela Airport

Closest report is Dr. Antonio Nicolás Briceño Airport, 32.9 nm (60.9 km) ENE.

2024/07/13 00:03 (retrieved 18 minutes ago)

SVVL 130003Z AUTO ///01KT NCD ///// Q////

Closest aviation forecast (TAF) to Central Venezuela Airport

Forecast is more than 12 hours old.

Closest forecast is San Antonio Del Tachira Airport, 112.3 nm (207.9 km) SW.

2024/07/12 12:00 (retrieved 12 hours ago)

TAF SVSA 121000Z 1212/1312 00000KT 9999 SCT023 TX34/18Z TN25/08Z FM121630 16010KT 9999 FEW020 SCT090 TEMPO 1222/1304 BKN017